Terminal Aerodrome Forecast
Issued by NWS Raleigh/Durham, NC

Home | Current Version | Previous Version | Text Only | Print | Product List | Glossary On
Versions: 1 2 3 4 5 6 7 8 9 10 11 12 13 14 15 16 17 18 19
000
FTUS42 KRAH 171539 AAB
TAFRDU
TAF AMD
KRDU 171539Z 1716/1812 03007KT 1/2SM SN FZFG OVC004
     FM172100 02006KT 1 1/2SM -SN BR OVC004
     FM172300 36010KT 5SM -SN BR OVC012
     FM180100 01008KT P6SM OVC025
     FM180300 35004KT P6SM OVC050=

USA.gov is the U.S. government's official web portal to all federal, state and local government web resources and services.